createdAt,value
2022-09-30T07:39:53.984Z,7.13
2022-09-30T07:42:23.831Z,7.07
2022-09-30T07:44:52.247Z,6.67
2022-09-30T07:47:20.505Z,6.63
2022-09-30T07:49:47.677Z,7.00
2022-09-30T07:52:16.075Z,6.93
2022-09-30T07:54:48.058Z,6.50
2022-09-30T08:02:16.422Z,8.30
2022-09-30T08:04:44.679Z,7.67
2022-09-30T08:07:14.192Z,8.00
2022-09-30T08:09:41.370Z,7.00
2022-09-30T08:12:08.841Z,7.83
2022-09-30T08:14:36.021Z,8.60
2022-09-30T08:17:03.094Z,8.23
2022-09-30T08:19:31.251Z,7.77
2022-09-30T08:21:58.635Z,8.30
2022-09-30T08:24:27.134Z,8.33
2022-09-30T08:26:55.061Z,8.23
2022-09-30T08:29:49.855Z,8.10
2022-09-30T08:32:09.569Z,7.87
2022-09-30T08:34:36.830Z,7.60
2022-09-30T08:37:08.852Z,7.97
2022-09-30T08:39:40.165Z,8.33
2022-09-30T08:42:39.762Z,7.77
2022-09-30T08:45:39.256Z,7.37
2022-09-30T08:48:13.773Z,7.27
2022-09-30T08:50:56.698Z,8.13
2022-09-30T08:53:34.779Z,7.57
2022-09-30T08:56:03.139Z,8.43
2022-09-30T08:58:32.997Z,8.10
2022-09-30T09:01:23.567Z,8.60
2022-09-30T09:03:50.801Z,8.13
2022-09-30T09:06:20.713Z,8.00
2022-09-30T09:09:05.918Z,9.23
2022-09-30T09:11:42.742Z,8.07
2022-09-30T09:14:25.684Z,8.87
2022-09-30T09:16:52.807Z,8.57
2022-09-30T09:19:25.978Z,8.00
2022-09-30T09:22:01.790Z,8.13
2022-09-30T09:24:51.044Z,8.67
2022-09-30T09:27:54.779Z,8.17
2022-09-30T09:30:24.809Z,8.17
2022-09-30T09:32:58.173Z,7.93
2022-09-30T09:35:33.487Z,7.17
2022-09-30T09:38:24.862Z,7.80
2022-09-30T09:43:51.820Z,8.30
2022-09-30T09:51:26.388Z,7.40
2022-09-30T09:53:58.174Z,7.30
2022-09-30T09:56:33.647Z,6.80
2022-09-30T09:59:16.946Z,6.20
2022-09-30T10:01:53.905Z,6.37
2022-09-30T10:04:31.662Z,5.80
2022-09-30T10:07:12.264Z,6.70
2022-09-30T10:09:41.473Z,5.20
2022-09-30T10:12:08.315Z,5.83
2022-09-30T10:15:03.318Z,5.73
2022-09-30T10:17:35.694Z,5.37
2022-09-30T10:20:06.997Z,5.23
2022-09-30T10:22:36.233Z,5.30
2022-09-30T10:25:29.595Z,5.60
2022-09-30T10:28:02.007Z,6.00
2022-09-30T10:30:45.419Z,5.97
2022-09-30T10:33:23.544Z,5.83
2022-09-30T10:36:13.030Z,5.27
2022-09-30T10:38:59.995Z,5.37
2022-09-30T10:41:33.118Z,5.77
2022-09-30T10:44:03.779Z,5.67
2022-09-30T10:46:39.688Z,5.57
2022-09-30T10:49:20.458Z,5.23
2022-09-30T10:51:47.628Z,5.53
2022-09-30T10:54:47.867Z,5.50
2022-09-30T10:57:24.209Z,5.50
2022-09-30T10:59:57.580Z,5.50
2022-09-30T11:02:42.867Z,5.00
2022-09-30T11:05:24.509Z,4.47
2022-09-30T11:08:13.454Z,4.50
2022-09-30T11:11:14.548Z,4.43
2022-09-30T11:14:10.123Z,4.70
2022-09-30T11:16:57.988Z,4.70
2022-09-30T11:19:38.066Z,4.70
2022-09-30T11:22:35.747Z,4.70
2022-09-30T11:25:07.422Z,4.70
2022-09-30T11:27:55.704Z,3.53
2022-09-30T11:30:39.274Z,3.53
2022-09-30T11:33:06.244Z,3.43
2022-09-30T11:35:47.240Z,4.10
2022-09-30T11:38:33.265Z,4.63
2022-09-30T11:41:14.610Z,4.10
2022-09-30T11:43:41.787Z,3.47
2022-09-30T11:46:23.626Z,3.10
2022-09-30T11:48:56.447Z,3.93
2022-09-30T11:51:38.386Z,3.40
2022-09-30T11:54:05.479Z,3.33
2022-09-30T11:56:35.225Z,3.90
2022-09-30T11:59:07.931Z,4.30
2022-09-30T12:01:41.457Z,4.20
2022-09-30T12:04:15.249Z,3.87
2022-09-30T12:07:01.233Z,3.83
2022-09-30T12:09:33.253Z,3.73
2022-09-30T12:12:16.735Z,4.00
2022-09-30T12:14:49.780Z,3.57
2022-09-30T12:17:33.163Z,3.63
2022-09-30T12:20:19.218Z,3.40
2022-09-30T12:22:48.096Z,3.15
2022-09-30T12:25:32.678Z,3.38
2022-09-30T12:28:36.248Z,3.28
2022-09-30T12:31:29.391Z,3.08
2022-09-30T12:34:28.620Z,3.58
2022-09-30T12:37:18.230Z,3.03
2022-09-30T12:40:11.380Z,2.92
2022-09-30T12:42:44.311Z,2.90
2022-09-30T12:45:40.655Z,2.85
2022-09-30T12:48:17.174Z,2.75
2022-09-30T12:50:49.707Z,2.50
2022-09-30T12:53:22.219Z,2.08
2022-09-30T12:55:49.631Z,2.50
2022-09-30T12:58:31.254Z,2.58
2022-09-30T13:01:15.059Z,2.30
2022-09-30T13:04:02.379Z,2.17
2022-09-30T13:06:47.781Z,1.90
2022-09-30T13:09:20.038Z,1.92
2022-09-30T13:11:48.385Z,1.70
2022-09-30T13:14:36.370Z,1.90
2022-09-30T13:17:10.279Z,1.70
2022-09-30T13:19:51.881Z,2.10
2022-09-30T13:22:19.054Z,1.92
2022-09-30T13:24:58.426Z,1.95
2022-09-30T13:27:42.789Z,2.00
2022-09-30T13:30:16.178Z,2.38
2022-09-30T13:32:47.756Z,2.20
2022-09-30T13:35:33.163Z,1.90
2022-09-30T13:38:12.524Z,2.13
2022-09-30T13:41:07.731Z,2.20
2022-09-30T13:43:53.552Z,1.70
2022-09-30T13:46:35.635Z,2.20
2022-09-30T13:49:18.398Z,2.77
2022-09-30T13:51:45.828Z,1.70
2022-09-30T13:54:25.277Z,1.77
2022-09-30T13:56:54.705Z,1.67
2022-09-30T13:59:53.976Z,1.60
2022-09-30T14:02:48.410Z,1.80
2022-09-30T14:05:22.715Z,1.80
2022-09-30T14:08:08.339Z,1.30
2022-09-30T14:10:57.112Z,1.50
2022-09-30T14:14:06.192Z,1.60
2022-09-30T14:16:51.695Z,1.77
2022-09-30T14:19:49.733Z,1.70
2022-09-30T14:22:17.652Z,1.60
2022-09-30T14:24:44.720Z,1.33
2022-09-30T14:27:30.222Z,1.83
2022-09-30T14:30:20.742Z,1.70
2022-09-30T14:32:53.563Z,2.13
2022-09-30T14:38:27.991Z,1.93
2022-09-30T14:40:58.425Z,2.00
2022-09-30T14:43:35.921Z,2.20
2022-09-30T14:46:09.561Z,2.07
2022-09-30T14:48:42.316Z,2.13
2022-09-30T14:51:12.963Z,2.15
2022-09-30T14:53:43.607Z,2.00
2022-09-30T14:56:30.702Z,1.90
2022-09-30T14:59:12.536Z,1.88
2022-09-30T15:01:40.696Z,2.00
2022-09-30T15:04:17.246Z,2.00
2022-09-30T15:06:48.480Z,1.97
2022-09-30T15:09:43.530Z,1.77
2022-09-30T15:12:16.672Z,1.95
2022-09-30T15:14:47.368Z,1.75
2022-09-30T15:17:38.414Z,2.10
2022-09-30T15:20:24.023Z,2.50
2022-09-30T15:22:55.135Z,1.70
2022-09-30T15:25:22.804Z,2.00
2022-09-30T15:27:50.309Z,2.00
2022-09-30T15:30:18.315Z,2.00
2022-09-30T15:32:50.254Z,1.87
2022-09-30T15:35:23.532Z,1.73
2022-09-30T15:37:52.115Z,2.00
2022-09-30T15:40:43.001Z,2.00
2022-09-30T15:43:15.529Z,2.00
2022-09-30T15:45:44.256Z,1.93
2022-09-30T15:48:27.065Z,2.03
2022-09-30T15:51:01.564Z,2.20
2022-09-30T15:53:45.138Z,2.20
2022-09-30T15:58:55.243Z,2.03
2022-09-30T16:01:25.063Z,2.03
2022-09-30T16:04:00.320Z,2.27
2022-09-30T16:06:38.286Z,2.17
2022-09-30T16:09:08.729Z,2.43
2022-09-30T16:11:43.463Z,1.77
2022-09-30T16:14:24.556Z,2.17
2022-09-30T16:16:55.439Z,2.27
2022-09-30T16:19:24.605Z,2.10
2022-09-30T16:21:53.122Z,2.73
2022-09-30T16:24:23.245Z,2.43
2022-09-30T16:26:57.640Z,2.50
2022-09-30T16:29:26.403Z,2.23
2022-09-30T16:31:57.359Z,2.13
2022-09-30T16:34:30.227Z,2.67
2022-09-30T16:37:19.346Z,2.50
2022-09-30T16:39:47.640Z,2.50
2022-09-30T16:42:16.111Z,2.63
2022-09-30T16:44:44.584Z,3.03
2022-09-30T16:47:17.185Z,2.67
2022-09-30T16:49:46.454Z,2.50
2022-09-30T16:52:14.292Z,2.30
2022-09-30T16:54:45.113Z,2.60
2022-09-30T17:04:39.652Z,2.33
2022-09-30T17:07:11.388Z,2.57
2022-09-30T17:09:39.567Z,2.70
2022-09-30T17:12:06.528Z,2.93
2022-09-30T17:14:33.561Z,3.27
2022-09-30T17:17:00.934Z,3.33
2022-09-30T17:19:30.130Z,3.60
2022-09-30T17:21:57.056Z,5.40
2022-09-30T17:24:24.095Z,5.30
2022-09-30T17:26:53.242Z,4.80
2022-09-30T17:29:37.954Z,5.33
2022-09-30T17:32:07.432Z,5.87
2022-09-30T17:34:34.713Z,8.50
2022-09-30T17:37:01.738Z,9.20
2022-09-30T17:39:28.698Z,5.43
2022-09-30T17:42:14.337Z,7.70
2022-09-30T17:44:41.608Z,9.23
2022-09-30T17:47:08.741Z,7.00
2022-09-30T17:49:37.096Z,7.13
2022-09-30T17:52:04.732Z,7.13
2022-09-30T17:54:33.083Z,6.90
2022-09-30T17:57:02.759Z,6.57
2022-09-30T17:59:30.125Z,5.10
2022-09-30T18:01:57.062Z,5.00
2022-09-30T18:04:26.148Z,4.60
2022-09-30T18:06:56.728Z,6.20
2022-09-30T18:09:23.987Z,6.70
2022-09-30T18:11:51.017Z,8.67
2022-09-30T18:14:17.959Z,11.83
2022-09-30T18:16:45.093Z,9.37
2022-09-30T18:21:44.150Z,4.87
2022-09-30T18:24:11.133Z,4.00
2022-09-30T18:26:38.141Z,3.50
2022-09-30T18:29:05.350Z,3.83
2022-09-30T18:31:37.345Z,4.43
2022-09-30T18:34:05.108Z,5.40
2022-09-30T18:36:37.554Z,5.70
